sensor_id;sensor_type;location;lat;lon;timestamp;P1;durP1;ratioP1;P2;durP2;ratioP2
41817;SDS011;27493;51.730;5.294;2022-08-05T00:01:50;5.32;;;1.92;;
41817;SDS011;27493;51.730;5.294;2022-08-05T00:04:15;4.22;;;1.70;;
41817;SDS011;27493;51.730;5.294;2022-08-05T00:06:41;3.03;;;1.80;;
41817;SDS011;27493;51.730;5.294;2022-08-05T00:09:06;2.08;;;1.38;;
41817;SDS011;27493;51.730;5.294;2022-08-05T00:11:31;3.00;;;1.70;;
41817;SDS011;27493;51.730;5.294;2022-08-05T00:13:56;4.07;;;1.98;;
41817;SDS011;27493;51.730;5.294;2022-08-05T00:16:21;4.65;;;2.10;;
41817;SDS011;27493;51.730;5.294;2022-08-05T00:18:47;2.22;;;1.55;;
41817;SDS011;27493;51.730;5.294;2022-08-05T00:21:13;1.70;;;1.60;;
41817;SDS011;27493;51.730;5.294;2022-08-05T00:23:39;4.88;;;1.83;;
41817;SDS011;27493;51.730;5.294;2022-08-05T00:26:04;5.70;;;1.92;;
41817;SDS011;27493;51.730;5.294;2022-08-05T00:28:30;2.45;;;1.70;;
41817;SDS011;27493;51.730;5.294;2022-08-05T00:30:55;8.57;;;2.17;;
41817;SDS011;27493;51.730;5.294;2022-08-05T00:33:20;2.63;;;1.83;;
41817;SDS011;27493;51.730;5.294;2022-08-05T00:35:45;3.38;;;2.08;;
41817;SDS011;27493;51.730;5.294;2022-08-05T00:38:10;3.60;;;1.90;;
41817;SDS011;27493;51.730;5.294;2022-08-05T00:40:44;2.30;;;2.10;;
41817;SDS011;27493;51.730;5.294;2022-08-05T00:43:10;4.75;;;2.15;;
41817;SDS011;27493;51.730;5.294;2022-08-05T00:45:35;5.13;;;1.60;;
41817;SDS011;27493;51.730;5.294;2022-08-05T00:48:00;3.42;;;1.90;;
41817;SDS011;27493;51.730;5.294;2022-08-05T00:50:25;2.00;;;1.73;;
41817;SDS011;27493;51.730;5.294;2022-08-05T00:52:51;6.90;;;1.80;;
41817;SDS011;27493;51.730;5.294;2022-08-05T00:55:16;5.30;;;2.03;;
41817;SDS011;27493;51.730;5.294;2022-08-05T00:57:41;4.53;;;1.95;;
41817;SDS011;27493;51.730;5.294;2022-08-05T01:00:07;3.20;;;1.83;;
41817;SDS011;27493;51.730;5.294;2022-08-05T01:02:32;3.80;;;1.60;;
41817;SDS011;27493;51.730;5.294;2022-08-05T01:04:57;2.85;;;1.70;;
41817;SDS011;27493;51.730;5.294;2022-08-05T01:07:23;3.88;;;1.60;;
41817;SDS011;27493;51.730;5.294;2022-08-05T01:09:48;2.33;;;1.67;;
41817;SDS011;27493;51.730;5.294;2022-08-05T01:12:14;2.13;;;1.98;;
41817;SDS011;27493;51.730;5.294;2022-08-05T01:17:13;3.03;;;1.90;;
41817;SDS011;27493;51.730;5.294;2022-08-05T01:22:27;3.45;;;1.85;;
41817;SDS011;27493;51.730;5.294;2022-08-05T01:27:47;3.55;;;1.80;;
41817;SDS011;27493;51.730;5.294;2022-08-05T01:30:12;2.47;;;1.55;;
41817;SDS011;27493;51.730;5.294;2022-08-05T01:32:37;4.80;;;1.80;;
41817;SDS011;27493;51.730;5.294;2022-08-05T01:35:08;2.43;;;1.67;;
41817;SDS011;27493;51.730;5.294;2022-08-05T01:40:08;5.00;;;1.60;;
41817;SDS011;27493;51.730;5.294;2022-08-05T01:42:34;2.57;;;1.53;;
41817;SDS011;27493;51.730;5.294;2022-08-05T01:45:00;5.83;;;1.70;;
41817;SDS011;27493;51.730;5.294;2022-08-05T01:47:27;4.97;;;1.63;;
41817;SDS011;27493;51.730;5.294;2022-08-05T01:49:53;6.17;;;1.83;;
41817;SDS011;27493;51.730;5.294;2022-08-05T01:52:19;5.30;;;2.00;;
41817;SDS011;27493;51.730;5.294;2022-08-05T01:54:57;4.33;;;2.00;;
41817;SDS011;27493;51.730;5.294;2022-08-05T01:57:27;3.37;;;1.83;;
41817;SDS011;27493;51.730;5.294;2022-08-05T01:59:53;4.67;;;1.70;;
41817;SDS011;27493;51.730;5.294;2022-08-05T02:02:21;3.10;;;1.80;;
41817;SDS011;27493;51.730;5.294;2022-08-05T02:04:47;5.40;;;2.07;;
41817;SDS011;27493;51.730;5.294;2022-08-05T02:07:12;2.67;;;1.80;;
41817;SDS011;27493;51.730;5.294;2022-08-05T02:09:38;2.30;;;1.63;;
41817;SDS011;27493;51.730;5.294;2022-08-05T02:14:46;2.03;;;1.70;;
41817;SDS011;27493;51.730;5.294;2022-08-05T02:17:15;4.70;;;1.90;;
41817;SDS011;27493;51.730;5.294;2022-08-05T02:19:42;2.20;;;1.60;;
41817;SDS011;27493;51.730;5.294;2022-08-05T02:22:13;2.77;;;1.80;;
41817;SDS011;27493;51.730;5.294;2022-08-05T02:24:39;2.90;;;1.83;;
41817;SDS011;27493;51.730;5.294;2022-08-05T02:27:05;3.93;;;1.70;;
41817;SDS011;27493;51.730;5.294;2022-08-05T02:29:33;4.80;;;2.00;;
41817;SDS011;27493;51.730;5.294;2022-08-05T02:31:58;2.80;;;1.77;;
41817;SDS011;27493;51.730;5.294;2022-08-05T02:34:25;2.93;;;1.80;;
41817;SDS011;27493;51.730;5.294;2022-08-05T02:36:53;2.77;;;1.80;;
41817;SDS011;27493;51.730;5.294;2022-08-05T02:39:18;2.63;;;1.73;;
41817;SDS011;27493;51.730;5.294;2022-08-05T02:41:46;2.93;;;2.03;;
41817;SDS011;27493;51.730;5.294;2022-08-05T02:44:12;4.07;;;1.90;;
41817;SDS011;27493;51.730;5.294;2022-08-05T02:46:38;5.30;;;2.00;;
41817;SDS011;27493;51.730;5.294;2022-08-05T02:49:04;5.80;;;2.00;;
41817;SDS011;27493;51.730;5.294;2022-08-05T02:51:30;2.80;;;2.10;;
41817;SDS011;27493;51.730;5.294;2022-08-05T02:53:55;4.00;;;1.93;;
41817;SDS011;27493;51.730;5.294;2022-08-05T02:56:21;3.40;;;2.00;;
41817;SDS011;27493;51.730;5.294;2022-08-05T02:58:47;4.00;;;2.10;;
41817;SDS011;27493;51.730;5.294;2022-08-05T03:01:16;4.20;;;2.20;;
41817;SDS011;27493;51.730;5.294;2022-08-05T03:03:42;7.13;;;2.20;;
41817;SDS011;27493;51.730;5.294;2022-08-05T03:06:10;2.80;;;1.80;;
41817;SDS011;27493;51.730;5.294;2022-08-05T03:08:37;6.10;;;1.87;;
41817;SDS011;27493;51.730;5.294;2022-08-05T03:11:02;2.97;;;1.80;;
41817;SDS011;27493;51.730;5.294;2022-08-05T03:13:28;6.23;;;2.10;;
41817;SDS011;27493;51.730;5.294;2022-08-05T03:15:53;3.17;;;1.77;;
41817;SDS011;27493;51.730;5.294;2022-08-05T03:18:18;5.83;;;1.93;;
41817;SDS011;27493;51.730;5.294;2022-08-05T03:20:43;2.87;;;1.80;;
41817;SDS011;27493;51.730;5.294;2022-08-05T03:23:09;3.30;;;1.90;;
41817;SDS011;27493;51.730;5.294;2022-08-05T03:25:35;2.63;;;1.90;;
41817;SDS011;27493;51.730;5.294;2022-08-05T03:28:01;4.17;;;1.90;;
41817;SDS011;27493;51.730;5.294;2022-08-05T03:30:27;4.23;;;1.83;;
41817;SDS011;27493;51.730;5.294;2022-08-05T03:32:52;3.30;;;2.00;;
41817;SDS011;27493;51.730;5.294;2022-08-05T03:35:19;2.17;;;1.90;;
41817;SDS011;27493;51.730;5.294;2022-08-05T03:37:44;4.40;;;2.13;;
41817;SDS011;27493;51.730;5.294;2022-08-05T03:40:10;3.43;;;2.10;;
41817;SDS011;27493;51.730;5.294;2022-08-05T03:42:36;4.43;;;2.20;;
41817;SDS011;27493;51.730;5.294;2022-08-05T03:45:02;1.90;;;1.60;;
41817;SDS011;27493;51.730;5.294;2022-08-05T03:47:27;7.17;;;1.80;;
41817;SDS011;27493;51.730;5.294;2022-08-05T03:49:52;3.97;;;1.90;;
41817;SDS011;27493;51.730;5.294;2022-08-05T03:52:25;2.93;;;2.10;;
41817;SDS011;27493;51.730;5.294;2022-08-05T03:54:53;3.13;;;1.70;;
41817;SDS011;27493;51.730;5.294;2022-08-05T03:57:21;5.97;;;1.90;;
41817;SDS011;27493;51.730;5.294;2022-08-05T04:00:11;3.57;;;1.80;;
41817;SDS011;27493;51.730;5.294;2022-08-05T04:02:35;3.70;;;1.90;;
41817;SDS011;27493;51.730;5.294;2022-08-05T04:05:02;5.03;;;2.10;;
41817;SDS011;27493;51.730;5.294;2022-08-05T04:07:28;3.13;;;2.07;;
41817;SDS011;27493;51.730;5.294;2022-08-05T04:09:53;3.93;;;1.90;;
41817;SDS011;27493;51.730;5.294;2022-08-05T04:12:19;5.03;;;1.77;;
41817;SDS011;27493;51.730;5.294;2022-08-05T04:14:44;3.20;;;1.70;;
41817;SDS011;27493;51.730;5.294;2022-08-05T04:17:09;1.83;;;1.70;;
41817;SDS011;27493;51.730;5.294;2022-08-05T04:19:45;5.17;;;1.90;;
41817;SDS011;27493;51.730;5.294;2022-08-05T04:22:10;2.93;;;2.00;;
41817;SDS011;27493;51.730;5.294;2022-08-05T04:24:36;5.90;;;2.23;;
41817;SDS011;27493;51.730;5.294;2022-08-05T04:27:02;3.87;;;1.83;;
41817;SDS011;27493;51.730;5.294;2022-08-05T04:29:27;3.97;;;2.00;;
41817;SDS011;27493;51.730;5.294;2022-08-05T04:31:52;3.67;;;1.97;;
41817;SDS011;27493;51.730;5.294;2022-08-05T04:34:17;3.37;;;2.00;;
41817;SDS011;27493;51.730;5.294;2022-08-05T04:36:43;2.27;;;1.70;;
41817;SDS011;27493;51.730;5.294;2022-08-05T04:39:08;2.53;;;1.90;;
41817;SDS011;27493;51.730;5.294;2022-08-05T04:41:33;3.53;;;1.90;;
41817;SDS011;27493;51.730;5.294;2022-08-05T04:43:58;4.90;;;1.83;;
41817;SDS011;27493;51.730;5.294;2022-08-05T04:46:23;4.00;;;1.90;;
41817;SDS011;27493;51.730;5.294;2022-08-05T04:48:49;3.40;;;1.77;;
41817;SDS011;27493;51.730;5.294;2022-08-05T04:51:14;3.00;;;1.87;;
41817;SDS011;27493;51.730;5.294;2022-08-05T04:53:39;2.73;;;1.80;;
41817;SDS011;27493;51.730;5.294;2022-08-05T04:56:05;4.57;;;2.10;;
41817;SDS011;27493;51.730;5.294;2022-08-05T04:58:31;6.43;;;2.00;;
41817;SDS011;27493;51.730;5.294;2022-08-05T05:00:56;2.13;;;1.80;;
41817;SDS011;27493;51.730;5.294;2022-08-05T05:03:21;7.30;;;2.20;;
41817;SDS011;27493;51.730;5.294;2022-08-05T05:05:47;2.50;;;2.10;;
41817;SDS011;27493;51.730;5.294;2022-08-05T05:08:12;1.80;;;1.63;;
41817;SDS011;27493;51.730;5.294;2022-08-05T05:10:40;4.67;;;1.90;;
41817;SDS011;27493;51.730;5.294;2022-08-05T05:13:06;5.63;;;2.00;;
41817;SDS011;27493;51.730;5.294;2022-08-05T05:15:31;4.53;;;2.10;;
41817;SDS011;27493;51.730;5.294;2022-08-05T05:17:56;2.27;;;1.60;;
41817;SDS011;27493;51.730;5.294;2022-08-05T05:20:22;5.20;;;1.90;;
41817;SDS011;27493;51.730;5.294;2022-08-05T05:22:47;4.17;;;2.13;;
41817;SDS011;27493;51.730;5.294;2022-08-05T05:25:12;3.20;;;1.80;;
41817;SDS011;27493;51.730;5.294;2022-08-05T05:27:38;2.30;;;1.83;;
41817;SDS011;27493;51.730;5.294;2022-08-05T05:30:04;5.37;;;2.20;;
41817;SDS011;27493;51.730;5.294;2022-08-05T05:32:29;2.90;;;2.10;;
41817;SDS011;27493;51.730;5.294;2022-08-05T05:34:54;2.10;;;1.90;;
41817;SDS011;27493;51.730;5.294;2022-08-05T05:37:19;2.63;;;2.00;;
41817;SDS011;27493;51.730;5.294;2022-08-05T05:39:45;2.50;;;2.10;;
41817;SDS011;27493;51.730;5.294;2022-08-05T05:42:10;3.43;;;2.10;;
41817;SDS011;27493;51.730;5.294;2022-08-05T05:44:35;5.23;;;2.73;;
41817;SDS011;27493;51.730;5.294;2022-08-05T05:47:00;3.00;;;2.40;;
41817;SDS011;27493;51.730;5.294;2022-08-05T05:49:26;3.37;;;2.27;;
41817;SDS011;27493;51.730;5.294;2022-08-05T05:51:51;3.33;;;2.33;;
41817;SDS011;27493;51.730;5.294;2022-08-05T05:54:16;5.07;;;2.37;;
41817;SDS011;27493;51.730;5.294;2022-08-05T05:56:42;4.10;;;2.30;;
41817;SDS011;27493;51.730;5.294;2022-08-05T05:59:07;5.13;;;2.77;;
41817;SDS011;27493;51.730;5.294;2022-08-05T06:01:33;3.27;;;2.30;;
41817;SDS011;27493;51.730;5.294;2022-08-05T06:03:58;4.20;;;2.07;;
41817;SDS011;27493;51.730;5.294;2022-08-05T06:06:24;3.77;;;2.53;;
41817;SDS011;27493;51.730;5.294;2022-08-05T06:08:49;5.17;;;2.53;;
41817;SDS011;27493;51.730;5.294;2022-08-05T06:11:14;2.07;;;1.90;;
41817;SDS011;27493;51.730;5.294;2022-08-05T06:13:39;3.47;;;2.00;;
41817;SDS011;27493;51.730;5.294;2022-08-05T06:16:04;3.67;;;2.10;;
41817;SDS011;27493;51.730;5.294;2022-08-05T06:18:30;2.77;;;2.10;;
41817;SDS011;27493;51.730;5.294;2022-08-05T06:20:55;3.57;;;2.07;;
41817;SDS011;27493;51.730;5.294;2022-08-05T06:23:20;5.53;;;2.50;;
41817;SDS011;27493;51.730;5.294;2022-08-05T06:25:45;3.10;;;2.20;;
41817;SDS011;27493;51.730;5.294;2022-08-05T06:28:10;5.87;;;1.93;;
41817;SDS011;27493;51.730;5.294;2022-08-05T06:30:37;8.50;;;2.30;;
41817;SDS011;27493;51.730;5.294;2022-08-05T06:33:02;4.20;;;2.20;;
41817;SDS011;27493;51.730;5.294;2022-08-05T06:35:27;7.63;;;2.07;;
41817;SDS011;27493;51.730;5.294;2022-08-05T06:37:52;2.43;;;1.80;;
41817;SDS011;27493;51.730;5.294;2022-08-05T06:40:18;4.50;;;2.10;;
41817;SDS011;27493;51.730;5.294;2022-08-05T06:42:43;4.63;;;2.13;;
41817;SDS011;27493;51.730;5.294;2022-08-05T06:45:08;3.77;;;1.97;;
41817;SDS011;27493;51.730;5.294;2022-08-05T06:47:33;3.37;;;1.90;;
41817;SDS011;27493;51.730;5.294;2022-08-05T06:49:58;2.70;;;1.87;;
41817;SDS011;27493;51.730;5.294;2022-08-05T06:52:23;3.80;;;1.80;;
41817;SDS011;27493;51.730;5.294;2022-08-05T06:54:49;4.07;;;2.00;;
41817;SDS011;27493;51.730;5.294;2022-08-05T06:57:14;2.47;;;1.73;;
41817;SDS011;27493;51.730;5.294;2022-08-05T06:59:42;2.27;;;1.70;;
41817;SDS011;27493;51.730;5.294;2022-08-05T07:02:07;1.90;;;1.60;;
41817;SDS011;27493;51.730;5.294;2022-08-05T07:04:32;3.83;;;1.70;;
41817;SDS011;27493;51.730;5.294;2022-08-05T07:06:58;3.67;;;1.70;;
41817;SDS011;27493;51.730;5.294;2022-08-05T07:09:23;2.07;;;1.47;;
41817;SDS011;27493;51.730;5.294;2022-08-05T07:11:48;2.70;;;1.60;;
41817;SDS011;27493;51.730;5.294;2022-08-05T07:14:13;3.50;;;1.70;;
41817;SDS011;27493;51.730;5.294;2022-08-05T07:16:57;1.97;;;1.60;;
41817;SDS011;27493;51.730;5.294;2022-08-05T07:19:26;2.97;;;1.60;;
41817;SDS011;27493;51.730;5.294;2022-08-05T07:21:53;2.43;;;1.60;;
41817;SDS011;27493;51.730;5.294;2022-08-05T07:24:18;2.23;;;1.60;;
41817;SDS011;27493;51.730;5.294;2022-08-05T07:26:44;1.60;;;1.40;;
41817;SDS011;27493;51.730;5.294;2022-08-05T07:29:09;3.60;;;1.70;;
41817;SDS011;27493;51.730;5.294;2022-08-05T07:31:35;3.80;;;1.90;;
41817;SDS011;27493;51.730;5.294;2022-08-05T07:34:00;2.67;;;1.80;;
41817;SDS011;27493;51.730;5.294;2022-08-05T07:36:26;1.70;;;1.60;;
41817;SDS011;27493;51.730;5.294;2022-08-05T07:38:51;1.90;;;1.47;;
41817;SDS011;27493;51.730;5.294;2022-08-05T07:41:17;3.10;;;2.00;;
41817;SDS011;27493;51.730;5.294;2022-08-05T07:43:43;1.70;;;1.60;;
41817;SDS011;27493;51.730;5.294;2022-08-05T07:46:08;2.57;;;1.53;;
41817;SDS011;27493;51.730;5.294;2022-08-05T07:48:33;2.70;;;1.70;;
41817;SDS011;27493;51.730;5.294;2022-08-05T07:50:58;1.90;;;1.80;;
41817;SDS011;27493;51.730;5.294;2022-08-05T07:53:24;2.30;;;1.50;;
41817;SDS011;27493;51.730;5.294;2022-08-05T07:55:49;3.67;;;1.50;;
41817;SDS011;27493;51.730;5.294;2022-08-05T07:58:14;4.83;;;1.60;;
41817;SDS011;27493;51.730;5.294;2022-08-05T08:00:40;1.70;;;1.60;;
41817;SDS011;27493;51.730;5.294;2022-08-05T08:03:09;2.47;;;1.60;;
41817;SDS011;27493;51.730;5.294;2022-08-05T08:14:44;3.23;;;1.20;;
41817;SDS011;27493;51.730;5.294;2022-08-05T08:17:09;2.33;;;1.37;;
41817;SDS011;27493;51.730;5.294;2022-08-05T08:19:37;2.23;;;1.40;;
41817;SDS011;27493;51.730;5.294;2022-08-05T08:22:03;1.50;;;1.40;;
41817;SDS011;27493;51.730;5.294;2022-08-05T08:24:28;5.73;;;1.40;;
41817;SDS011;27493;51.730;5.294;2022-08-05T08:26:54;1.60;;;1.50;;
41817;SDS011;27493;51.730;5.294;2022-08-05T08:29:19;1.30;;;1.20;;
41817;SDS011;27493;51.730;5.294;2022-08-05T08:31:44;1.77;;;1.53;;
41817;SDS011;27493;51.730;5.294;2022-08-05T08:34:09;4.13;;;1.60;;
41817;SDS011;27493;51.730;5.294;2022-08-05T08:36:34;1.97;;;1.50;;
41817;SDS011;27493;51.730;5.294;2022-08-05T08:39:00;3.67;;;1.47;;
41817;SDS011;27493;51.730;5.294;2022-08-05T08:41:25;1.60;;;1.23;;
41817;SDS011;27493;51.730;5.294;2022-08-05T08:43:51;4.40;;;1.77;;
41817;SDS011;27493;51.730;5.294;2022-08-05T08:46:18;2.87;;;1.40;;
41817;SDS011;27493;51.730;5.294;2022-08-05T08:48:44;3.73;;;1.40;;
41817;SDS011;27493;51.730;5.294;2022-08-05T08:51:10;1.10;;;1.10;;
41817;SDS011;27493;51.730;5.294;2022-08-05T08:53:36;0.90;;;0.90;;
41817;SDS011;27493;51.730;5.294;2022-08-05T08:56:02;2.92;;;0.93;;
41817;SDS011;27493;51.730;5.294;2022-08-05T08:58:28;1.00;;;0.77;;
41817;SDS011;27493;51.730;5.294;2022-08-05T09:00:53;1.80;;;1.03;;
41817;SDS011;27493;51.730;5.294;2022-08-05T09:03:18;0.63;;;0.63;;
41817;SDS011;27493;51.730;5.294;2022-08-05T09:05:45;0.75;;;0.70;;
41817;SDS011;27493;51.730;5.294;2022-08-05T09:08:11;0.70;;;0.70;;
41817;SDS011;27493;51.730;5.294;2022-08-05T09:10:38;3.58;;;1.25;;
41817;SDS011;27493;51.730;5.294;2022-08-05T09:13:04;0.80;;;0.80;;
41817;SDS011;27493;51.730;5.294;2022-08-05T09:15:29;2.43;;;0.87;;
41817;SDS011;27493;51.730;5.294;2022-08-05T09:17:54;0.80;;;0.80;;
41817;SDS011;27493;51.730;5.294;2022-08-05T09:20:19;1.17;;;0.70;;
41817;SDS011;27493;51.730;5.294;2022-08-05T09:23:04;1.90;;;0.60;;
41817;SDS011;27493;51.730;5.294;2022-08-05T09:25:30;0.70;;;0.70;;
41817;SDS011;27493;51.730;5.294;2022-08-05T09:27:56;0.77;;;0.67;;
41817;SDS011;27493;51.730;5.294;2022-08-05T09:30:32;1.20;;;0.60;;
41817;SDS011;27493;51.730;5.294;2022-08-05T09:33:00;0.30;;;0.30;;
41817;SDS011;27493;51.730;5.294;2022-08-05T09:35:25;0.93;;;0.70;;
41817;SDS011;27493;51.730;5.294;2022-08-05T09:37:51;0.50;;;0.50;;
41817;SDS011;27493;51.730;5.294;2022-08-05T09:49:25;0.93;;;0.70;;
41817;SDS011;27493;51.730;5.294;2022-08-05T09:51:50;0.68;;;0.68;;
41817;SDS011;27493;51.730;5.294;2022-08-05T09:54:15;0.73;;;0.70;;
41817;SDS011;27493;51.730;5.294;2022-08-05T09:56:41;0.60;;;0.60;;
41817;SDS011;27493;51.730;5.294;2022-08-05T09:59:16;2.05;;;0.75;;
41817;SDS011;27493;51.730;5.294;2022-08-05T10:01:41;0.30;;;0.30;;
41817;SDS011;27493;51.730;5.294;2022-08-05T10:12:57;0.47;;;0.47;;
41817;SDS011;27493;51.730;5.294;2022-08-05T10:15:27;1.40;;;0.43;;
41817;SDS011;27493;51.730;5.294;2022-08-05T10:18:07;0.40;;;0.40;;
41817;SDS011;27493;51.730;5.294;2022-08-05T10:20:34;0.65;;;0.60;;
41817;SDS011;27493;51.730;5.294;2022-08-05T10:23:00;0.70;;;0.70;;
41817;SDS011;27493;51.730;5.294;2022-08-05T10:25:25;0.43;;;0.43;;
41817;SDS011;27493;51.730;5.294;2022-08-05T10:27:51;0.52;;;0.52;;
41817;SDS011;27493;51.730;5.294;2022-08-05T10:30:17;0.82;;;0.60;;
41817;SDS011;27493;51.730;5.294;2022-08-05T10:32:43;0.40;;;0.40;;
41817;SDS011;27493;51.730;5.294;2022-08-05T10:35:08;0.60;;;0.60;;
41817;SDS011;27493;51.730;5.294;2022-08-05T10:37:34;0.50;;;0.50;;
41817;SDS011;27493;51.730;5.294;2022-08-05T10:40:00;1.63;;;0.60;;
41817;SDS011;27493;51.730;5.294;2022-08-05T10:42:28;1.38;;;0.60;;
41817;SDS011;27493;51.730;5.294;2022-08-05T10:44:53;0.60;;;0.60;;
41817;SDS011;27493;51.730;5.294;2022-08-05T10:47:20;0.88;;;0.80;;
41817;SDS011;27493;51.730;5.294;2022-08-05T10:55:04;1.35;;;0.68;;
41817;SDS011;27493;51.730;5.294;2022-08-05T10:57:30;2.03;;;0.90;;
41817;SDS011;27493;51.730;5.294;2022-08-05T11:05:28;1.10;;;0.70;;
41817;SDS011;27493;51.730;5.294;2022-08-05T11:07:56;0.50;;;0.50;;
41817;SDS011;27493;51.730;5.294;2022-08-05T11:10:22;1.67;;;0.85;;
41817;SDS011;27493;51.730;5.294;2022-08-05T11:12:48;0.88;;;0.63;;
41817;SDS011;27493;51.730;5.294;2022-08-05T11:20:41;0.70;;;0.70;;
41817;SDS011;27493;51.730;5.294;2022-08-05T11:26:07;1.10;;;0.73;;
41817;SDS011;27493;51.730;5.294;2022-08-05T11:36:00;1.35;;;0.80;;
41817;SDS011;27493;51.730;5.294;2022-08-05T11:44:23;0.75;;;0.52;;
41817;SDS011;27493;51.730;5.294;2022-08-05T11:46:50;0.77;;;0.30;;
41817;SDS011;27493;51.730;5.294;2022-08-05T11:49:16;0.43;;;0.43;;
41817;SDS011;27493;51.730;5.294;2022-08-05T11:51:46;2.10;;;0.88;;
41817;SDS011;27493;51.730;5.294;2022-08-05T11:54:12;0.60;;;0.60;;
41817;SDS011;27493;51.730;5.294;2022-08-05T11:56:56;2.05;;;0.57;;
41817;SDS011;27493;51.730;5.294;2022-08-05T12:04:21;0.40;;;0.40;;
41817;SDS011;27493;51.730;5.294;2022-08-05T12:06:46;0.60;;;0.60;;
41817;SDS011;27493;51.730;5.294;2022-08-05T12:09:12;0.38;;;0.38;;
41817;SDS011;27493;51.730;5.294;2022-08-05T12:11:41;0.40;;;0.40;;
41817;SDS011;27493;51.730;5.294;2022-08-05T12:14:07;0.52;;;0.52;;
41817;SDS011;27493;51.730;5.294;2022-08-05T12:16:36;0.32;;;0.32;;
41817;SDS011;27493;51.730;5.294;2022-08-05T12:19:03;1.75;;;0.70;;
41817;SDS011;27493;51.730;5.294;2022-08-05T12:21:29;0.65;;;0.65;;
41817;SDS011;27493;51.730;5.294;2022-08-05T12:24:05;0.70;;;0.57;;
41817;SDS011;27493;51.730;5.294;2022-08-05T12:28:59;0.57;;;0.57;;
41817;SDS011;27493;51.730;5.294;2022-08-05T12:31:24;0.40;;;0.40;;
41817;SDS011;27493;51.730;5.294;2022-08-05T12:33:49;1.10;;;0.70;;
41817;SDS011;27493;51.730;5.294;2022-08-05T12:36:14;0.70;;;0.50;;
41817;SDS011;27493;51.730;5.294;2022-08-05T12:38:40;0.47;;;0.30;;
41817;SDS011;27493;51.730;5.294;2022-08-05T12:41:06;0.50;;;0.40;;
41817;SDS011;27493;51.730;5.294;2022-08-05T12:43:31;1.08;;;0.68;;
41817;SDS011;27493;51.730;5.294;2022-08-05T12:45:57;0.47;;;0.47;;
41817;SDS011;27493;51.730;5.294;2022-08-05T12:48:22;0.30;;;0.30;;
41817;SDS011;27493;51.730;5.294;2022-08-05T12:53:31;0.30;;;0.30;;
41817;SDS011;27493;51.730;5.294;2022-08-05T12:55:56;0.30;;;0.30;;
41817;SDS011;27493;51.730;5.294;2022-08-05T12:58:24;1.23;;;0.60;;
41817;SDS011;27493;51.730;5.294;2022-08-05T13:00:50;0.77;;;0.60;;
41817;SDS011;27493;51.730;5.294;2022-08-05T13:03:15;0.70;;;0.43;;
41817;SDS011;27493;51.730;5.294;2022-08-05T13:05:40;0.43;;;0.43;;
41817;SDS011;27493;51.730;5.294;2022-08-05T13:08:05;0.50;;;0.50;;
41817;SDS011;27493;51.730;5.294;2022-08-05T13:10:31;0.38;;;0.38;;
41817;SDS011;27493;51.730;5.294;2022-08-05T13:12:57;0.95;;;0.40;;
41817;SDS011;27493;51.730;5.294;2022-08-05T13:15:26;0.45;;;0.40;;
41817;SDS011;27493;51.730;5.294;2022-08-05T13:17:52;1.52;;;0.85;;
41817;SDS011;27493;51.730;5.294;2022-08-05T13:20:18;0.40;;;0.40;;
41817;SDS011;27493;51.730;5.294;2022-08-05T13:22:48;0.63;;;0.50;;
41817;SDS011;27493;51.730;5.294;2022-08-05T13:25:15;0.50;;;0.50;;
41817;SDS011;27493;51.730;5.294;2022-08-05T13:27:42;0.40;;;0.40;;
41817;SDS011;27493;51.730;5.294;2022-08-05T13:30:09;0.50;;;0.43;;
41817;SDS011;27493;51.730;5.294;2022-08-05T13:32:34;0.47;;;0.40;;
41817;SDS011;27493;51.730;5.294;2022-08-05T13:34:59;0.30;;;0.30;;
41817;SDS011;27493;51.730;5.294;2022-08-05T13:37:25;1.45;;;0.65;;
41817;SDS011;27493;51.730;5.294;2022-08-05T13:39:50;0.40;;;0.40;;
41817;SDS011;27493;51.730;5.294;2022-08-05T13:42:20;0.45;;;0.45;;
41817;SDS011;27493;51.730;5.294;2022-08-05T13:44:45;0.75;;;0.70;;
41817;SDS011;27493;51.730;5.294;2022-08-05T13:47:11;0.85;;;0.50;;
41817;SDS011;27493;51.730;5.294;2022-08-05T13:49:36;1.13;;;0.50;;
41817;SDS011;27493;51.730;5.294;2022-08-05T13:52:09;0.43;;;0.43;;
41817;SDS011;27493;51.730;5.294;2022-08-05T13:54:34;0.65;;;0.50;;
41817;SDS011;27493;51.730;5.294;2022-08-05T13:56:59;0.65;;;0.60;;
41817;SDS011;27493;51.730;5.294;2022-08-05T13:59:24;0.43;;;0.40;;
41817;SDS011;27493;51.730;5.294;2022-08-05T14:01:50;0.30;;;0.30;;
41817;SDS011;27493;51.730;5.294;2022-08-05T14:04:15;0.70;;;0.43;;
41817;SDS011;27493;51.730;5.294;2022-08-05T14:07:10;0.57;;;0.55;;
41817;SDS011;27493;51.730;5.294;2022-08-05T14:09:35;0.50;;;0.50;;
41817;SDS011;27493;51.730;5.294;2022-08-05T14:12:01;1.05;;;0.30;;
41817;SDS011;27493;51.730;5.294;2022-08-05T14:14:26;0.50;;;0.50;;
41817;SDS011;27493;51.730;5.294;2022-08-05T14:16:52;1.00;;;0.50;;
41817;SDS011;27493;51.730;5.294;2022-08-05T14:19:17;0.50;;;0.50;;
41817;SDS011;27493;51.730;5.294;2022-08-05T14:21:42;0.30;;;0.30;;
41817;SDS011;27493;51.730;5.294;2022-08-05T14:24:07;0.27;;;0.27;;
41817;SDS011;27493;51.730;5.294;2022-08-05T14:26:35;0.50;;;0.50;;
41817;SDS011;27493;51.730;5.294;2022-08-05T14:29:03;0.80;;;0.50;;
41817;SDS011;27493;51.730;5.294;2022-08-05T14:31:28;0.85;;;0.63;;
41817;SDS011;27493;51.730;5.294;2022-08-05T14:33:54;3.47;;;0.65;;
41817;SDS011;27493;51.730;5.294;2022-08-05T14:36:19;0.85;;;0.45;;
41817;SDS011;27493;51.730;5.294;2022-08-05T14:38:44;0.45;;;0.43;;
41817;SDS011;27493;51.730;5.294;2022-08-05T14:41:09;0.60;;;0.50;;
41817;SDS011;27493;51.730;5.294;2022-08-05T14:43:35;0.30;;;0.30;;
41817;SDS011;27493;51.730;5.294;2022-08-05T14:46:00;0.40;;;0.40;;
41817;SDS011;27493;51.730;5.294;2022-08-05T14:48:26;0.30;;;0.30;;
41817;SDS011;27493;51.730;5.294;2022-08-05T14:50:51;0.40;;;0.40;;
41817;SDS011;27493;51.730;5.294;2022-08-05T14:53:16;1.40;;;0.50;;
41817;SDS011;27493;51.730;5.294;2022-08-05T14:55:42;0.30;;;0.30;;
41817;SDS011;27493;51.730;5.294;2022-08-05T14:58:07;0.73;;;0.37;;
41817;SDS011;27493;51.730;5.294;2022-08-05T15:00:33;0.30;;;0.30;;
41817;SDS011;27493;51.730;5.294;2022-08-05T15:02:58;0.57;;;0.57;;
41817;SDS011;27493;51.730;5.294;2022-08-05T15:05:23;0.70;;;0.30;;
41817;SDS011;27493;51.730;5.294;2022-08-05T15:07:51;1.17;;;0.70;;
41817;SDS011;27493;51.730;5.294;2022-08-05T15:10:16;0.35;;;0.35;;
41817;SDS011;27493;51.730;5.294;2022-08-05T15:12:41;0.80;;;0.57;;
41817;SDS011;27493;51.730;5.294;2022-08-05T15:15:06;0.40;;;0.40;;
41817;SDS011;27493;51.730;5.294;2022-08-05T15:17:32;0.47;;;0.47;;
41817;SDS011;27493;51.730;5.294;2022-08-05T15:19:57;0.65;;;0.40;;
41817;SDS011;27493;51.730;5.294;2022-08-05T15:22:22;0.22;;;0.20;;
41817;SDS011;27493;51.730;5.294;2022-08-05T15:24:48;1.02;;;0.50;;
41817;SDS011;27493;51.730;5.294;2022-08-05T15:27:13;0.85;;;0.43;;
41817;SDS011;27493;51.730;5.294;2022-08-05T15:29:38;0.70;;;0.63;;
41817;SDS011;27493;51.730;5.294;2022-08-05T15:32:03;0.47;;;0.47;;
41817;SDS011;27493;51.730;5.294;2022-08-05T15:34:29;1.05;;;0.50;;
41817;SDS011;27493;51.730;5.294;2022-08-05T15:36:54;0.30;;;0.30;;
41817;SDS011;27493;51.730;5.294;2022-08-05T15:39:19;0.40;;;0.40;;
41817;SDS011;27493;51.730;5.294;2022-08-05T15:41:44;0.60;;;0.60;;
41817;SDS011;27493;51.730;5.294;2022-08-05T15:44:09;0.57;;;0.57;;
41817;SDS011;27493;51.730;5.294;2022-08-05T15:46:35;1.75;;;0.55;;
41817;SDS011;27493;51.730;5.294;2022-08-05T15:49:00;3.67;;;0.65;;
41817;SDS011;27493;51.730;5.294;2022-08-05T15:51:26;1.35;;;0.40;;
41817;SDS011;27493;51.730;5.294;2022-08-05T15:53:51;0.73;;;0.50;;
41817;SDS011;27493;51.730;5.294;2022-08-05T15:56:17;1.75;;;0.52;;
41817;SDS011;27493;51.730;5.294;2022-08-05T15:58:42;0.60;;;0.60;;
41817;SDS011;27493;51.730;5.294;2022-08-05T16:01:08;1.75;;;0.45;;
41817;SDS011;27493;51.730;5.294;2022-08-05T16:03:37;0.52;;;0.52;;
41817;SDS011;27493;51.730;5.294;2022-08-05T16:06:03;0.80;;;0.68;;